15NC weather

Dragonfly Field
Ahoskie, North Carolina, United States

Public forecast

Using degrees Fahrenheit for public forecast. Weather courtesy of forecast.io.

METAR (pilot weather report)

Closest report is Tri County Airport, 10.1 nm (18.8 km) WNW. Retrieved 2019/04/26 05:40 UTC (0 seconds ago):

KASJ 260540Z AUTO 19003KT 10SM CLR 21/16 A2982 RMK AO2 T02050156

TAF (pilot weather forecast)

Forecast is more than 12 hours old.

Closest forecast is Elizabeth City Regional Airport & Coast Guard Air Station, 38.7 nm (71.7 km) E. Retrieved 2019/04/25 00:30 UTC (1 day ago):

TAF TAF KECG 252325Z 2600/2624 21007KT P6SM BKN200 FM261400 19018G27KT P6SM BKN070 FM261700 19020G32KT 4SM SHRA BKN060 FM262200 22017G26KT 4SM SHRA OVC050